createdAt,value
2018-12-01T00:00:01.430Z,229.20
2018-12-01T00:02:31.537Z,204.60
2018-12-01T00:05:20.256Z,207.40
2018-12-01T00:07:50.785Z,199.80
2018-12-01T00:10:20.996Z,210.60
2018-12-01T00:12:50.983Z,189.60
2018-12-01T00:15:21.809Z,226.60
2018-12-01T00:17:51.912Z,213.40
2018-12-01T00:20:23.112Z,217.40
2018-12-01T00:22:53.075Z,200.40
2018-12-01T00:25:23.071Z,216.40
2018-12-01T00:27:53.162Z,199.20
2018-12-01T00:30:24.826Z,216.80
2018-12-01T00:32:55.412Z,204.00
2018-12-01T00:35:25.651Z,213.60
2018-12-01T00:37:55.605Z,215.40
2018-12-01T00:40:25.761Z,207.80
2018-12-01T00:42:55.670Z,186.60
2018-12-01T00:45:25.666Z,215.80
2018-12-01T00:47:55.711Z,215.80
2018-12-01T00:50:26.583Z,228.80
2018-12-01T00:52:56.558Z,226.00
2018-12-01T00:55:26.627Z,219.80
2018-12-01T00:57:56.560Z,190.20
2018-12-01T01:00:28.081Z,223.00
2018-12-01T01:02:59.192Z,224.80
2018-12-01T01:05:29.914Z,221.40
2018-12-01T01:08:00.489Z,232.40
2018-12-01T01:10:32.110Z,217.20
2018-12-01T01:13:01.979Z,237.25
2018-12-01T01:15:32.192Z,230.00
2018-12-01T01:18:02.441Z,247.50
2018-12-01T01:20:33.206Z,240.25
2018-12-01T01:23:03.094Z,243.50
2018-12-01T01:25:33.351Z,251.25
2018-12-01T01:28:03.366Z,244.75
2018-12-01T01:30:33.294Z,239.50
2018-12-01T01:33:08.100Z,227.25
2018-12-01T01:35:38.620Z,245.25
2018-12-01T01:38:08.780Z,257.75
2018-12-01T01:40:38.722Z,247.50
2018-12-01T01:43:08.790Z,241.00
2018-12-01T01:45:38.793Z,265.00
2018-12-01T01:48:09.014Z,262.00
2018-12-01T01:50:39.721Z,273.00
2018-12-01T01:53:11.074Z,278.50
2018-12-01T01:55:41.345Z,269.50
2018-12-01T01:58:11.304Z,294.50
2018-12-01T02:00:41.590Z,294.00
2018-12-01T02:03:11.629Z,313.50
2018-12-01T02:05:41.816Z,306.25
2018-12-01T02:08:11.838Z,309.00
2018-12-01T02:10:42.001Z,284.50
2018-12-01T02:13:12.019Z,325.25
2018-12-01T02:15:41.998Z,322.75
2018-12-01T02:18:11.953Z,320.00
2018-12-01T02:20:42.476Z,316.00
2018-12-01T02:23:12.673Z,337.50
2018-12-01T02:25:44.120Z,344.75
2018-12-01T02:28:14.019Z,381.25
2018-12-01T02:30:44.769Z,340.75
2018-12-01T02:33:14.866Z,329.50
2018-12-01T02:35:45.202Z,362.00
2018-12-01T02:38:15.314Z,366.50
2018-12-01T02:40:45.328Z,341.50
2018-12-01T02:43:15.407Z,302.75
2018-12-01T02:45:50.429Z,354.00
2018-12-01T02:48:21.239Z,350.00
2018-12-01T02:50:51.770Z,325.50
2018-12-01T02:53:21.842Z,357.75
2018-12-01T02:55:51.948Z,304.00
2018-12-01T02:58:23.563Z,328.50
2018-12-01T03:00:53.547Z,345.50
2018-12-01T03:03:23.331Z,336.25
2018-12-01T03:05:53.455Z,326.50
2018-12-01T03:08:23.486Z,310.00
2018-12-01T03:10:53.559Z,286.75
2018-12-01T03:13:23.482Z,309.25
2018-12-01T03:15:53.507Z,329.75
2018-12-01T03:18:23.559Z,334.25
2018-12-01T03:20:54.539Z,306.25
2018-12-01T03:23:24.589Z,319.25
2018-12-01T03:25:56.822Z,292.75
2018-12-01T03:28:26.869Z,316.50
2018-12-01T03:30:57.565Z,274.75
2018-12-01T03:33:27.988Z,318.00
2018-12-01T03:35:58.027Z,274.75
2018-12-01T03:38:28.330Z,321.50
2018-12-01T03:40:58.983Z,318.00
2018-12-01T03:43:29.414Z,306.00
2018-12-01T03:45:59.967Z,302.00
2018-12-01T03:48:30.011Z,289.00
2018-12-01T03:51:00.594Z,288.75
2018-12-01T03:53:30.859Z,267.50
2018-12-01T03:56:01.303Z,248.00
2018-12-01T03:58:31.114Z,245.00
2018-12-01T04:01:01.163Z,240.00
2018-12-01T04:03:31.478Z,254.50
2018-12-01T04:06:01.598Z,260.25
2018-12-01T04:08:31.676Z,246.00
2018-12-01T04:11:01.988Z,265.25
2018-12-01T04:13:32.140Z,240.25
2018-12-01T04:16:02.374Z,223.50
2018-12-01T04:18:32.343Z,225.00
2018-12-01T04:21:02.908Z,240.50
2018-12-01T04:23:33.016Z,234.75
2018-12-01T04:26:03.237Z,234.00
2018-12-01T04:28:33.921Z,269.00
2018-12-01T04:31:03.962Z,253.50
2018-12-01T04:33:34.493Z,264.25
2018-12-01T04:36:04.366Z,233.75
2018-12-01T04:38:34.311Z,226.50
2018-12-01T04:41:05.268Z,206.60
2018-12-01T04:43:35.421Z,217.40
2018-12-01T04:46:05.673Z,215.60
2018-12-01T04:48:36.175Z,189.40
2018-12-01T04:51:07.215Z,210.20
2018-12-01T04:53:37.161Z,213.60
2018-12-01T04:56:07.866Z,202.00
2018-12-01T04:58:38.264Z,214.40
2018-12-01T05:01:08.553Z,192.40
2018-12-01T05:03:38.624Z,191.80
2018-12-01T05:08:44.735Z,193.75
2018-12-01T05:11:16.202Z,192.40
2018-12-01T05:13:48.147Z,181.00
2018-12-01T05:16:19.997Z,188.60
2018-12-01T05:18:52.131Z,181.00
2018-12-01T05:21:24.039Z,169.80
2018-12-01T05:23:55.832Z,168.60
2018-12-01T05:26:27.967Z,172.80
2018-12-01T05:28:59.891Z,158.60
2018-12-01T05:31:31.510Z,176.60
2018-12-01T05:34:03.883Z,166.60
2018-12-01T05:36:35.430Z,168.20
2018-12-01T05:39:09.344Z,154.60
2018-12-01T05:41:41.185Z,181.20
2018-12-01T05:44:12.959Z,176.80
2018-12-01T05:46:45.144Z,174.00
2018-12-01T05:49:17.410Z,177.60
2018-12-01T05:51:49.592Z,166.80
2018-12-01T05:54:21.850Z,164.20
2018-12-01T05:56:53.578Z,167.80
2018-12-01T05:59:25.290Z,158.60
2018-12-01T06:01:57.322Z,173.20
2018-12-01T06:04:29.104Z,162.40
2018-12-01T06:07:00.741Z,180.00
2018-12-01T06:09:32.541Z,146.20
2018-12-01T06:12:04.346Z,161.00
2018-12-01T06:14:36.216Z,142.20
2018-12-01T06:17:08.494Z,168.40
2018-12-01T06:19:40.212Z,161.60
2018-12-01T06:22:12.397Z,147.40
2018-12-01T06:24:44.009Z,160.80
2018-12-01T06:27:15.649Z,135.20
2018-12-01T06:29:47.655Z,129.80
2018-12-01T06:32:19.103Z,127.20
2018-12-01T06:34:50.795Z,127.80
2018-12-01T06:37:22.205Z,117.80
2018-12-01T06:39:54.728Z,120.20
2018-12-01T06:42:26.333Z,107.60
2018-12-01T06:44:57.851Z,122.20
2018-12-01T06:47:29.234Z,112.80
2018-12-01T06:50:01.000Z,107.80
2018-12-01T06:52:33.071Z,98.00
2018-12-01T06:55:04.603Z,100.40
2018-12-01T06:57:36.033Z,98.40
2018-12-01T07:00:10.431Z,94.20
2018-12-01T07:02:41.840Z,92.20
2018-12-01T07:05:16.841Z,87.60
2018-12-01T07:07:50.263Z,94.80
2018-12-01T07:10:23.173Z,87.80
2018-12-01T07:12:56.056Z,94.00
2018-12-01T07:15:36.956Z,89.00
2018-12-01T07:18:17.937Z,91.60
2018-12-01T07:20:49.536Z,98.00
2018-12-01T07:23:21.763Z,92.60
2018-12-01T07:25:53.719Z,89.20
2018-12-01T07:28:25.216Z,93.00
2018-12-01T07:30:57.096Z,88.60
2018-12-01T07:33:28.614Z,91.20
2018-12-01T07:36:00.629Z,88.40
2018-12-01T07:38:32.022Z,83.60
2018-12-01T07:41:03.779Z,88.20
2018-12-01T07:43:35.465Z,78.80
2018-12-01T07:46:07.532Z,80.40
2018-12-01T07:48:39.157Z,78.60
2018-12-01T07:51:10.659Z,86.40
2018-12-01T07:53:43.096Z,80.40
2018-12-01T07:56:14.752Z,86.40
2018-12-01T07:58:46.423Z,88.60
2018-12-01T08:01:17.941Z,88.60
2018-12-01T08:03:50.402Z,90.40
2018-12-01T08:06:22.137Z,93.00
2018-12-01T08:08:54.650Z,83.80
2018-12-01T08:11:26.288Z,87.60
2018-12-01T08:13:58.722Z,88.60
2018-12-01T08:16:30.307Z,83.80
2018-12-01T08:19:01.762Z,89.20
2018-12-01T08:21:35.490Z,91.80
2018-12-01T08:24:07.776Z,89.60
2018-12-01T08:26:41.452Z,81.20
2018-12-01T08:29:13.038Z,82.60
2018-12-01T08:31:44.579Z,84.40
2018-12-01T08:34:16.024Z,83.60
2018-12-01T08:36:47.727Z,86.00
2018-12-01T08:39:19.379Z,86.20
2018-12-01T08:41:50.945Z,82.80
2018-12-01T08:44:22.529Z,80.80
2018-12-01T08:46:54.053Z,82.20
2018-12-01T08:49:25.675Z,87.80
2018-12-01T08:51:57.228Z,95.20
2018-12-01T08:54:29.049Z,82.60
2018-12-01T08:57:01.517Z,83.60
2018-12-01T08:59:32.927Z,87.60
2018-12-01T09:02:06.764Z,84.80
2018-12-01T09:04:38.038Z,85.80
2018-12-01T09:07:09.486Z,82.40
2018-12-01T09:09:40.972Z,82.40
2018-12-01T09:12:12.527Z,79.40
2018-12-01T09:14:46.076Z,75.40
2018-12-01T09:17:18.143Z,84.60
2018-12-01T09:19:49.460Z,85.00
2018-12-01T09:22:20.879Z,84.60
2018-12-01T09:24:53.042Z,83.40
2018-12-01T09:27:24.950Z,89.80
2018-12-01T09:29:56.470Z,85.00
2018-12-01T09:32:28.959Z,80.20
2018-12-01T09:35:00.369Z,88.80
2018-12-01T09:37:31.958Z,84.20
2018-12-01T09:40:03.563Z,79.40
2018-12-01T09:42:35.178Z,82.60
2018-12-01T09:45:09.241Z,85.20
2018-12-01T09:47:41.091Z,75.20
2018-12-01T09:50:15.393Z,86.60
2018-12-01T09:52:48.224Z,77.00
2018-12-01T09:55:24.125Z,86.60
2018-12-01T09:57:55.693Z,84.00
2018-12-01T10:00:31.316Z,85.40
2018-12-01T10:03:04.263Z,84.00
2018-12-01T10:05:36.673Z,80.80
2018-12-01T10:08:09.473Z,81.60
2018-12-01T10:10:40.941Z,80.40
2018-12-01T10:13:13.342Z,83.80
2018-12-01T10:15:44.885Z,83.60
2018-12-01T10:18:16.995Z,75.00
2018-12-01T10:20:49.257Z,83.40
2018-12-01T10:23:20.971Z,75.40
2018-12-01T10:25:53.042Z,82.40
2018-12-01T10:28:24.749Z,80.00
2018-12-01T10:30:56.270Z,84.20
2018-12-01T10:33:28.100Z,83.00
2018-12-01T10:35:59.647Z,80.00
2018-12-01T10:38:31.141Z,74.60
2018-12-01T10:41:03.062Z,81.40
2018-12-01T10:43:35.077Z,77.80
2018-12-01T10:46:06.774Z,80.40
2018-12-01T10:48:38.746Z,85.20
2018-12-01T10:51:10.374Z,87.20
2018-12-01T10:53:42.183Z,81.40
2018-12-01T10:56:14.510Z,86.80
2018-12-01T10:58:46.330Z,76.80
2018-12-01T11:01:22.718Z,82.80
2018-12-01T11:03:54.548Z,83.80
2018-12-01T11:06:26.403Z,74.80
2018-12-01T11:08:58.399Z,77.80
2018-12-01T11:11:30.148Z,84.60
2018-12-01T11:14:01.824Z,81.80
2018-12-01T11:16:33.937Z,81.40
2018-12-01T11:19:07.229Z,76.40
2018-12-01T11:21:39.921Z,79.60
2018-12-01T11:24:12.198Z,82.00
2018-12-01T11:26:45.034Z,79.00
2018-12-01T11:29:17.419Z,71.60
2018-12-01T11:31:49.818Z,78.20
2018-12-01T11:34:22.185Z,77.40
2018-12-01T11:36:54.365Z,82.60
2018-12-01T11:39:26.757Z,79.20
2018-12-01T11:42:00.165Z,79.20
2018-12-01T11:44:32.229Z,81.40
2018-12-01T11:47:05.466Z,84.40
2018-12-01T11:49:37.648Z,75.20
2018-12-01T11:52:10.099Z,81.00
2018-12-01T11:54:42.057Z,83.80
2018-12-01T11:57:14.225Z,84.60
2018-12-01T11:59:46.156Z,82.00
2018-12-01T12:02:18.905Z,81.40
2018-12-01T12:04:51.141Z,84.20
2018-12-01T12:07:32.814Z,91.80
2018-12-01T12:10:04.928Z,87.60
2018-12-01T12:12:37.120Z,93.20
2018-12-01T12:15:13.161Z,89.60
2018-12-01T12:17:49.087Z,100.20
2018-12-01T12:20:23.770Z,98.80
2018-12-01T12:22:58.251Z,108.00
2018-12-01T12:25:33.018Z,119.20
2018-12-01T12:28:08.655Z,110.20
2018-12-01T12:30:42.286Z,117.80
2018-12-01T12:33:14.261Z,139.40
2018-12-01T12:35:46.549Z,149.60
2018-12-01T12:38:18.666Z,168.60
2018-12-01T12:40:50.877Z,170.80
2018-12-01T12:43:23.263Z,167.40
2018-12-01T12:45:55.365Z,178.80
2018-12-01T12:48:27.245Z,179.00
2018-12-01T12:50:58.838Z,178.50
2018-12-01T12:53:30.379Z,166.60
2018-12-01T12:56:02.047Z,171.80
2018-12-01T12:58:34.394Z,177.60
2018-12-01T13:01:05.954Z,167.00
2018-12-01T13:03:37.728Z,160.20
2018-12-01T13:06:09.495Z,161.80
2018-12-01T13:08:41.151Z,156.20
2018-12-01T13:11:12.843Z,162.60
2018-12-01T13:13:44.344Z,158.60
2018-12-01T13:16:16.207Z,164.20
2018-12-01T13:18:47.683Z,167.80
2018-12-01T13:21:20.414Z,159.20
2018-12-01T13:23:52.132Z,169.60
2018-12-01T13:26:24.262Z,183.80
2018-12-01T13:28:56.249Z,166.60
2018-12-01T13:31:28.073Z,150.20
2018-12-01T13:34:02.846Z,174.20
2018-12-01T13:36:36.704Z,148.00
2018-12-01T13:39:10.941Z,151.60
2018-12-01T13:41:42.661Z,162.20
2018-12-01T13:44:14.393Z,175.40
2018-12-01T13:46:45.931Z,190.25
2018-12-01T13:49:17.369Z,203.00
2018-12-01T13:51:48.985Z,202.00
2018-12-01T13:54:20.445Z,189.75
2018-12-01T13:56:52.023Z,191.25
2018-12-01T13:59:24.178Z,219.00
2018-12-01T14:01:56.099Z,222.00
2018-12-01T14:04:27.487Z,248.50
2018-12-01T14:06:59.037Z,270.25
2018-12-01T14:09:30.660Z,288.00
2018-12-01T14:12:02.273Z,290.00
2018-12-01T14:14:34.086Z,315.75
2018-12-01T14:17:05.637Z,316.50
2018-12-01T14:19:37.075Z,317.50
2018-12-01T14:22:09.149Z,306.25
2018-12-01T14:24:40.826Z,316.00
2018-12-01T14:27:13.364Z,313.25
2018-12-01T14:29:45.269Z,281.25
2018-12-01T14:32:16.745Z,294.50
2018-12-01T14:34:48.147Z,277.50
2018-12-01T14:37:19.791Z,261.50
2018-12-01T14:39:51.331Z,280.25
2018-12-01T14:42:23.160Z,393.00
2018-12-01T14:44:54.606Z,295.25
2018-12-01T14:47:26.154Z,277.50
2018-12-01T14:49:57.739Z,292.50
2018-12-01T14:52:29.803Z,296.00
2018-12-01T14:55:01.663Z,296.50
2018-12-01T14:57:33.485Z,288.00
2018-12-01T15:00:05.606Z,289.00
2018-12-01T15:02:37.529Z,280.25
2018-12-01T15:05:09.443Z,284.00
2018-12-01T15:07:40.902Z,277.25
2018-12-01T15:10:15.519Z,274.25
2018-12-01T15:12:46.999Z,277.50
2018-12-01T15:15:20.614Z,259.00
2018-12-01T15:17:52.379Z,247.50
2018-12-01T15:20:24.941Z,264.00
2018-12-01T15:22:57.969Z,241.25
2018-12-01T15:25:31.310Z,238.75
2018-12-01T15:28:03.009Z,232.00
2018-12-01T15:30:35.287Z,225.50
2018-12-01T15:33:10.747Z,232.75
2018-12-01T15:35:43.641Z,207.25
2018-12-01T15:38:15.248Z,208.75
2018-12-01T15:40:52.979Z,195.50
2018-12-01T15:43:24.673Z,193.75
2018-12-01T15:45:56.403Z,196.25
2018-12-01T15:48:28.158Z,215.00
2018-12-01T15:50:59.530Z,206.50
2018-12-01T15:53:31.210Z,200.50
2018-12-01T15:56:04.126Z,208.25
2018-12-01T15:58:35.707Z,195.00
2018-12-01T16:01:07.752Z,210.50
2018-12-01T16:03:40.290Z,227.50
2018-12-01T16:06:12.481Z,224.75
2018-12-01T16:08:44.639Z,233.50
2018-12-01T16:11:16.654Z,230.00
2018-12-01T16:13:48.624Z,237.75
2018-12-01T16:16:20.646Z,242.25
2018-12-01T16:18:52.804Z,255.25
2018-12-01T16:21:24.657Z,263.00
2018-12-01T16:23:56.749Z,279.25
2018-12-01T16:26:28.291Z,301.50
2018-12-01T16:29:01.061Z,311.50
2018-12-01T16:31:33.555Z,306.50
2018-12-01T16:34:05.796Z,336.75
2018-12-01T16:36:37.925Z,381.00
2018-12-01T16:39:12.528Z,396.25
2018-12-01T16:41:44.720Z,430.40
2018-12-01T16:44:16.800Z,446.00
2018-12-01T16:46:48.651Z,453.00
2018-12-01T16:49:20.614Z,437.00
2018-12-01T16:51:52.736Z,424.80
2018-12-01T16:54:24.757Z,438.80
2018-12-01T16:56:57.085Z,454.00
2018-12-01T16:59:29.216Z,455.00
2018-12-01T17:02:01.530Z,471.00
2018-12-01T17:04:33.351Z,464.00
2018-12-01T17:07:05.854Z,428.75
2018-12-01T17:09:39.180Z,473.80
2018-12-01T17:12:10.932Z,464.25
2018-12-01T17:14:43.263Z,474.00
2018-12-01T17:17:15.038Z,467.00
2018-12-01T17:19:47.117Z,479.25
2018-12-01T17:22:18.906Z,474.75
2018-12-01T17:24:50.956Z,456.00
2018-12-01T17:27:22.756Z,463.40
2018-12-01T17:29:54.916Z,453.75
2018-12-01T17:32:28.098Z,453.20
2018-12-01T17:35:00.316Z,489.80
2018-12-01T17:37:31.887Z,471.40
2018-12-01T17:40:03.586Z,481.00
2018-12-01T17:42:35.325Z,451.50
2018-12-01T17:45:08.173Z,481.80
2018-12-01T17:47:39.958Z,491.60
2018-12-01T17:50:14.180Z,481.25
2018-12-01T17:52:50.489Z,499.75
2018-12-01T17:55:22.302Z,475.40
2018-12-01T17:57:54.642Z,465.50
2018-12-01T18:00:28.606Z,483.50
2018-12-01T18:03:02.643Z,492.50
2018-12-01T18:05:37.437Z,479.00
2018-12-01T18:08:12.100Z,492.50
2018-12-01T18:10:44.692Z,490.50
2018-12-01T18:13:16.851Z,496.25
2018-12-01T18:15:48.803Z,491.00
2018-12-01T18:18:20.374Z,484.25
2018-12-01T18:20:52.516Z,478.50
2018-12-01T18:23:24.628Z,476.50
2018-12-01T18:25:57.573Z,475.50
2018-12-01T18:28:33.745Z,486.50
2018-12-01T18:31:08.819Z,459.80
2018-12-01T18:33:43.539Z,445.00
2018-12-01T18:36:17.238Z,498.40
2018-12-01T18:38:50.690Z,477.80
2018-12-01T18:41:22.862Z,480.20
2018-12-01T18:43:54.655Z,464.60
2018-12-01T18:46:26.814Z,478.40
2018-12-01T18:48:58.671Z,483.20
2018-12-01T18:51:30.441Z,464.00
2018-12-01T18:54:02.025Z,457.80
2018-12-01T18:56:34.248Z,467.20
2018-12-01T18:59:06.137Z,475.20
2018-12-01T19:01:37.768Z,485.20
2018-12-01T19:04:10.398Z,464.40
2018-12-01T19:06:43.003Z,481.40
2018-12-01T19:09:15.751Z,427.60
2018-12-01T19:11:47.739Z,448.20
2018-12-01T19:14:21.048Z,440.60
2018-12-01T19:16:52.973Z,477.20
2018-12-01T19:19:25.413Z,444.00
2018-12-01T19:21:58.880Z,463.20
2018-12-01T19:24:30.735Z,446.00
2018-12-01T19:27:02.724Z,416.75
2018-12-01T19:29:34.577Z,447.00
2018-12-01T19:32:06.665Z,433.20
2018-12-01T19:34:39.101Z,428.50
2018-12-01T19:37:11.182Z,456.75
2018-12-01T19:39:43.414Z,415.75
2018-12-01T19:42:15.218Z,409.75
2018-12-01T19:44:46.871Z,420.25
2018-12-01T19:47:18.697Z,415.50
2018-12-01T19:49:50.852Z,438.25
2018-12-01T19:52:22.767Z,436.00
2018-12-01T19:54:55.072Z,417.00
2018-12-01T19:57:27.068Z,423.75
2018-12-01T19:59:58.902Z,440.25
2018-12-01T20:02:32.061Z,411.50
2018-12-01T20:05:04.417Z,415.25
2018-12-01T20:07:36.516Z,409.75
2018-12-01T20:10:12.422Z,423.75
2018-12-01T20:12:44.944Z,442.75
2018-12-01T20:15:20.897Z,422.00
2018-12-01T20:17:53.052Z,407.75
2018-12-01T20:20:24.590Z,420.50
2018-12-01T20:22:56.662Z,400.00
2018-12-01T20:25:28.789Z,425.00
2018-12-01T20:28:01.753Z,420.75
2018-12-01T20:30:33.851Z,420.00
2018-12-01T20:33:08.397Z,419.75
2018-12-01T20:35:48.222Z,419.00
2018-12-01T20:38:26.160Z,433.00
2018-12-01T20:40:57.947Z,412.00
2018-12-01T20:43:29.945Z,420.75
2018-12-01T20:46:01.565Z,416.75
2018-12-01T20:48:56.878Z,408.50
2018-12-01T20:51:28.617Z,404.75
2018-12-01T20:54:07.380Z,425.50
2018-12-01T20:56:42.302Z,421.50
2018-12-01T20:59:17.384Z,390.25
2018-12-01T21:01:49.622Z,411.00
2018-12-01T21:04:21.581Z,432.00
2018-12-01T21:06:54.135Z,441.25
2018-12-01T21:09:26.048Z,427.00
2018-12-01T21:11:57.788Z,413.25
2018-12-01T21:14:29.485Z,422.75
2018-12-01T21:17:01.854Z,419.50
2018-12-01T21:19:34.372Z,436.75
2018-12-01T21:22:08.462Z,411.50
2018-12-01T21:24:40.480Z,422.00
2018-12-01T21:27:13.409Z,426.25
2018-12-01T21:29:45.111Z,422.50
2018-12-01T21:32:17.333Z,434.25
2018-12-01T21:34:49.493Z,424.75
2018-12-01T21:37:22.074Z,409.25
2018-12-01T21:39:53.972Z,419.50
2018-12-01T21:42:26.205Z,403.50
2018-12-01T21:44:58.181Z,382.00
2018-12-01T21:47:29.782Z,379.50
2018-12-01T21:50:02.054Z,357.25
2018-12-01T21:52:34.254Z,381.50
2018-12-01T21:55:06.298Z,381.50
2018-12-01T21:57:37.978Z,365.00
2018-12-01T22:00:32.778Z,366.75
2018-12-01T22:03:08.698Z,373.50
2018-12-01T22:05:44.727Z,377.25
2018-12-01T22:08:17.384Z,371.25
2018-12-01T22:10:52.019Z,368.25
2018-12-01T22:13:23.888Z,368.00
2018-12-01T22:15:56.166Z,381.50
2018-12-01T22:18:28.145Z,387.50
2018-12-01T22:20:59.921Z,378.25
2018-12-01T22:23:32.732Z,375.00
2018-12-01T22:26:05.097Z,356.75
2018-12-01T22:28:37.287Z,364.00
2018-12-01T22:31:09.006Z,363.75
2018-12-01T22:33:41.030Z,344.00
2018-12-01T22:36:13.241Z,370.25
2018-12-01T22:38:45.824Z,324.75
2018-12-01T22:41:17.712Z,359.25
2018-12-01T22:43:49.875Z,352.50
2018-12-01T22:46:21.599Z,339.00
2018-12-01T22:48:53.603Z,365.25
2018-12-01T22:51:25.618Z,340.00
2018-12-01T22:53:57.383Z,342.75
2018-12-01T22:56:29.566Z,352.75
2018-12-01T22:59:01.305Z,354.25
2018-12-01T23:01:33.541Z,365.00
2018-12-01T23:04:05.047Z,359.25
2018-12-01T23:06:36.860Z,358.50
2018-12-01T23:09:10.542Z,333.75
2018-12-01T23:11:42.317Z,360.00
2018-12-01T23:14:14.375Z,334.00
2018-12-01T23:16:46.035Z,352.75
2018-12-01T23:19:17.816Z,341.75
2018-12-01T23:21:49.486Z,334.50
2018-12-01T23:24:21.793Z,352.50
2018-12-01T23:26:53.389Z,347.25
2018-12-01T23:29:25.321Z,331.00
2018-12-01T23:31:57.486Z,332.50
2018-12-01T23:34:29.683Z,325.00
2018-12-01T23:37:01.601Z,331.25
2018-12-01T23:39:33.734Z,316.50
2018-12-01T23:42:05.449Z,332.00
2018-12-01T23:44:37.260Z,318.25
2018-12-01T23:47:08.931Z,323.00
2018-12-01T23:49:40.765Z,332.25
2018-12-01T23:52:12.701Z,323.25
2018-12-01T23:54:44.315Z,337.50
2018-12-01T23:57:16.073Z,323.25
2018-12-01T23:59:47.856Z,338.25
